sensor_id;sensor_type;location;lat;lon;timestamp;P1;durP1;ratioP1;P2;durP2;ratioP2
20415;SDS011;10367;52.202;5.996;2023-04-03T00:02:21;11.10;;;5.87;;
20415;SDS011;10367;52.202;5.996;2023-04-03T00:04:50;8.50;;;5.23;;
20415;SDS011;10367;52.202;5.996;2023-04-03T00:07:19;12.07;;;6.20;;
20415;SDS011;10367;52.202;5.996;2023-04-03T00:09:47;13.73;;;6.60;;
20415;SDS011;10367;52.202;5.996;2023-04-03T00:12:16;11.27;;;5.63;;
20415;SDS011;10367;52.202;5.996;2023-04-03T00:14:45;13.10;;;6.13;;
20415;SDS011;10367;52.202;5.996;2023-04-03T00:17:15;11.87;;;5.67;;
20415;SDS011;10367;52.202;5.996;2023-04-03T00:19:43;8.40;;;5.27;;
20415;SDS011;10367;52.202;5.996;2023-04-03T00:22:12;16.33;;;6.70;;
20415;SDS011;10367;52.202;5.996;2023-04-03T00:24:41;11.60;;;6.13;;
20415;SDS011;10367;52.202;5.996;2023-04-03T00:27:09;21.03;;;8.17;;
20415;SDS011;10367;52.202;5.996;2023-04-03T00:29:38;13.53;;;6.50;;
20415;SDS011;10367;52.202;5.996;2023-04-03T00:32:07;18.17;;;7.23;;
20415;SDS011;10367;52.202;5.996;2023-04-03T00:34:37;10.93;;;5.20;;
20415;SDS011;10367;52.202;5.996;2023-04-03T00:37:05;21.20;;;7.77;;
20415;SDS011;10367;52.202;5.996;2023-04-03T00:39:34;8.50;;;5.20;;
20415;SDS011;10367;52.202;5.996;2023-04-03T00:42:03;18.27;;;7.17;;
20415;SDS011;10367;52.202;5.996;2023-04-03T00:47:37;14.00;;;6.10;;
20415;SDS011;10367;52.202;5.996;2023-04-03T00:50:09;13.80;;;5.90;;
20415;SDS011;10367;52.202;5.996;2023-04-03T00:52:38;15.43;;;6.50;;
20415;SDS011;10367;52.202;5.996;2023-04-03T00:55:08;15.03;;;6.20;;
20415;SDS011;10367;52.202;5.996;2023-04-03T00:57:37;13.07;;;5.57;;
20415;SDS011;10367;52.202;5.996;2023-04-03T01:00:07;10.97;;;6.07;;
20415;SDS011;10367;52.202;5.996;2023-04-03T01:02:39;10.00;;;5.50;;
20415;SDS011;10367;52.202;5.996;2023-04-03T01:05:09;11.47;;;5.57;;
20415;SDS011;10367;52.202;5.996;2023-04-03T01:07:38;11.17;;;5.70;;
20415;SDS011;10367;52.202;5.996;2023-04-03T01:10:09;16.07;;;6.43;;
20415;SDS011;10367;52.202;5.996;2023-04-03T01:12:41;10.03;;;5.10;;
20415;SDS011;10367;52.202;5.996;2023-04-03T01:15:13;14.50;;;5.60;;
20415;SDS011;10367;52.202;5.996;2023-04-03T01:17:44;11.03;;;5.83;;
20415;SDS011;10367;52.202;5.996;2023-04-03T01:20:21;12.43;;;5.23;;
20415;SDS011;10367;52.202;5.996;2023-04-03T01:23:25;10.17;;;5.57;;
20415;SDS011;10367;52.202;5.996;2023-04-03T01:26:01;23.70;;;7.37;;
20415;SDS011;10367;52.202;5.996;2023-04-03T01:28:31;8.03;;;4.87;;
20415;SDS011;10367;52.202;5.996;2023-04-03T01:31:02;17.67;;;7.27;;
20415;SDS011;10367;52.202;5.996;2023-04-03T01:33:41;15.37;;;5.87;;
20415;SDS011;10367;52.202;5.996;2023-04-03T01:36:13;15.40;;;6.20;;
20415;SDS011;10367;52.202;5.996;2023-04-03T01:38:43;12.33;;;5.73;;
20415;SDS011;10367;52.202;5.996;2023-04-03T01:41:12;19.57;;;7.90;;
20415;SDS011;10367;52.202;5.996;2023-04-03T01:43:41;10.10;;;6.10;;
20415;SDS011;10367;52.202;5.996;2023-04-03T01:46:09;21.87;;;7.83;;
20415;SDS011;10367;52.202;5.996;2023-04-03T01:48:38;17.90;;;7.27;;
20415;SDS011;10367;52.202;5.996;2023-04-03T01:51:09;19.43;;;7.57;;
20415;SDS011;10367;52.202;5.996;2023-04-03T01:53:38;15.07;;;5.77;;
20415;SDS011;10367;52.202;5.996;2023-04-03T01:56:07;22.33;;;8.40;;
20415;SDS011;10367;52.202;5.996;2023-04-03T01:58:36;14.83;;;6.23;;
20415;SDS011;10367;52.202;5.996;2023-04-03T02:01:05;17.80;;;6.93;;
20415;SDS011;10367;52.202;5.996;2023-04-03T02:03:34;10.33;;;5.67;;
20415;SDS011;10367;52.202;5.996;2023-04-03T02:06:02;11.27;;;6.00;;
20415;SDS011;10367;52.202;5.996;2023-04-03T02:08:33;13.97;;;4.90;;
20415;SDS011;10367;52.202;5.996;2023-04-03T02:11:01;23.13;;;7.97;;
20415;SDS011;10367;52.202;5.996;2023-04-03T02:13:30;16.87;;;6.87;;
20415;SDS011;10367;52.202;5.996;2023-04-03T02:15:59;16.53;;;7.03;;
20415;SDS011;10367;52.202;5.996;2023-04-03T02:18:33;12.30;;;5.90;;
20415;SDS011;10367;52.202;5.996;2023-04-03T02:21:02;26.10;;;8.43;;
20415;SDS011;10367;52.202;5.996;2023-04-03T02:23:32;9.13;;;5.27;;
20415;SDS011;10367;52.202;5.996;2023-04-03T02:26:04;27.10;;;7.90;;
20415;SDS011;10367;52.202;5.996;2023-04-03T02:28:34;9.83;;;5.13;;
20415;SDS011;10367;52.202;5.996;2023-04-03T02:31:03;23.80;;;7.97;;
20415;SDS011;10367;52.202;5.996;2023-04-03T02:33:33;12.83;;;5.77;;
20415;SDS011;10367;52.202;5.996;2023-04-03T02:36:03;16.53;;;6.33;;
20415;SDS011;10367;52.202;5.996;2023-04-03T02:38:35;18.30;;;7.20;;
20415;SDS011;10367;52.202;5.996;2023-04-03T02:41:04;13.03;;;5.67;;
20415;SDS011;10367;52.202;5.996;2023-04-03T02:43:34;12.77;;;5.37;;
20415;SDS011;10367;52.202;5.996;2023-04-03T02:46:03;17.37;;;7.17;;
20415;SDS011;10367;52.202;5.996;2023-04-03T02:48:33;9.90;;;5.43;;
20415;SDS011;10367;52.202;5.996;2023-04-03T02:51:03;21.37;;;7.10;;
20415;SDS011;10367;52.202;5.996;2023-04-03T02:53:32;9.00;;;5.10;;
20415;SDS011;10367;52.202;5.996;2023-04-03T02:56:02;15.67;;;6.90;;
20415;SDS011;10367;52.202;5.996;2023-04-03T02:58:31;11.93;;;5.07;;
20415;SDS011;10367;52.202;5.996;2023-04-03T03:01:00;21.03;;;7.90;;
20415;SDS011;10367;52.202;5.996;2023-04-03T03:03:29;11.53;;;5.80;;
20415;SDS011;10367;52.202;5.996;2023-04-03T03:06:01;27.23;;;6.97;;
20415;SDS011;10367;52.202;5.996;2023-04-03T03:08:30;9.23;;;5.10;;
20415;SDS011;10367;52.202;5.996;2023-04-03T03:10:59;10.93;;;5.40;;
20415;SDS011;10367;52.202;5.996;2023-04-03T03:13:29;12.83;;;5.10;;
20415;SDS011;10367;52.202;5.996;2023-04-03T03:15:58;12.93;;;6.03;;
20415;SDS011;10367;52.202;5.996;2023-04-03T03:18:27;12.03;;;5.93;;
20415;SDS011;10367;52.202;5.996;2023-04-03T03:20:57;10.87;;;5.33;;
20415;SDS011;10367;52.202;5.996;2023-04-03T03:23:28;8.80;;;5.17;;
20415;SDS011;10367;52.202;5.996;2023-04-03T03:25:59;10.07;;;5.53;;
20415;SDS011;10367;52.202;5.996;2023-04-03T03:28:30;9.47;;;5.10;;
20415;SDS011;10367;52.202;5.996;2023-04-03T03:30:59;10.67;;;5.40;;
20415;SDS011;10367;52.202;5.996;2023-04-03T03:33:28;12.67;;;5.87;;
20415;SDS011;10367;52.202;5.996;2023-04-03T03:35:57;14.00;;;5.87;;
20415;SDS011;10367;52.202;5.996;2023-04-03T03:38:26;16.93;;;6.33;;
20415;SDS011;10367;52.202;5.996;2023-04-03T03:40:55;13.50;;;6.03;;
20415;SDS011;10367;52.202;5.996;2023-04-03T03:43:23;18.63;;;7.43;;
20415;SDS011;10367;52.202;5.996;2023-04-03T03:45:54;8.57;;;5.20;;
20415;SDS011;10367;52.202;5.996;2023-04-03T03:48:23;20.47;;;7.10;;
20415;SDS011;10367;52.202;5.996;2023-04-03T03:50:51;12.87;;;5.50;;
20415;SDS011;10367;52.202;5.996;2023-04-03T03:53:20;12.27;;;5.80;;
20415;SDS011;10367;52.202;5.996;2023-04-03T03:55:49;12.50;;;5.37;;
20415;SDS011;10367;52.202;5.996;2023-04-03T03:58:17;25.13;;;8.53;;
20415;SDS011;10367;52.202;5.996;2023-04-03T04:00:46;13.53;;;5.90;;
20415;SDS011;10367;52.202;5.996;2023-04-03T04:03:16;21.60;;;8.13;;
20415;SDS011;10367;52.202;5.996;2023-04-03T04:05:45;12.83;;;6.20;;
20415;SDS011;10367;52.202;5.996;2023-04-03T04:08:14;19.63;;;7.70;;
20415;SDS011;10367;52.202;5.996;2023-04-03T04:10:43;11.63;;;5.90;;
20415;SDS011;10367;52.202;5.996;2023-04-03T04:13:11;15.47;;;6.30;;
20415;SDS011;10367;52.202;5.996;2023-04-03T04:15:40;14.60;;;6.13;;
20415;SDS011;10367;52.202;5.996;2023-04-03T04:18:09;24.03;;;8.17;;
20415;SDS011;10367;52.202;5.996;2023-04-03T04:20:39;13.43;;;5.93;;
20415;SDS011;10367;52.202;5.996;2023-04-03T04:23:08;18.17;;;7.07;;
20415;SDS011;10367;52.202;5.996;2023-04-03T04:25:36;11.77;;;5.57;;
20415;SDS011;10367;52.202;5.996;2023-04-03T04:28:05;13.83;;;6.43;;
20415;SDS011;10367;52.202;5.996;2023-04-03T04:30:34;13.23;;;5.53;;
20415;SDS011;10367;52.202;5.996;2023-04-03T04:33:03;8.27;;;5.07;;
20415;SDS011;10367;52.202;5.996;2023-04-03T04:35:32;12.63;;;5.77;;
20415;SDS011;10367;52.202;5.996;2023-04-03T04:38:03;11.40;;;4.97;;
20415;SDS011;10367;52.202;5.996;2023-04-03T04:43:19;13.67;;;5.93;;
20415;SDS011;10367;52.202;5.996;2023-04-03T04:45:48;10.53;;;5.67;;
20415;SDS011;10367;52.202;5.996;2023-04-03T04:48:16;20.20;;;7.83;;
20415;SDS011;10367;52.202;5.996;2023-04-03T04:50:45;14.83;;;6.40;;
20415;SDS011;10367;52.202;5.996;2023-04-03T04:53:15;21.97;;;7.67;;
20415;SDS011;10367;52.202;5.996;2023-04-03T04:55:44;12.43;;;5.40;;
20415;SDS011;10367;52.202;5.996;2023-04-03T04:58:12;15.90;;;7.17;;
20415;SDS011;10367;52.202;5.996;2023-04-03T05:00:41;25.00;;;7.13;;
20415;SDS011;10367;52.202;5.996;2023-04-03T05:03:10;22.53;;;6.67;;
20415;SDS011;10367;52.202;5.996;2023-04-03T05:05:38;20.07;;;6.63;;
20415;SDS011;10367;52.202;5.996;2023-04-03T05:08:07;19.63;;;7.07;;
20415;SDS011;10367;52.202;5.996;2023-04-03T05:10:37;12.33;;;5.77;;
20415;SDS011;10367;52.202;5.996;2023-04-03T05:13:07;21.27;;;7.20;;
20415;SDS011;10367;52.202;5.996;2023-04-03T05:15:36;16.60;;;5.60;;
20415;SDS011;10367;52.202;5.996;2023-04-03T05:18:05;14.97;;;5.63;;
20415;SDS011;10367;52.202;5.996;2023-04-03T05:20:34;9.47;;;4.90;;
20415;SDS011;10367;52.202;5.996;2023-04-03T05:23:04;10.83;;;5.30;;
20415;SDS011;10367;52.202;5.996;2023-04-03T05:25:33;13.43;;;5.60;;
20415;SDS011;10367;52.202;5.996;2023-04-03T05:28:07;9.23;;;5.57;;
20415;SDS011;10367;52.202;5.996;2023-04-03T05:30:36;14.30;;;6.00;;
20415;SDS011;10367;52.202;5.996;2023-04-03T05:33:05;18.37;;;5.63;;
20415;SDS011;10367;52.202;5.996;2023-04-03T05:35:35;14.73;;;6.07;;
20415;SDS011;10367;52.202;5.996;2023-04-03T05:38:07;17.67;;;6.40;;
20415;SDS011;10367;52.202;5.996;2023-04-03T05:40:36;27.83;;;7.43;;
20415;SDS011;10367;52.202;5.996;2023-04-03T05:43:06;17.30;;;6.30;;
20415;SDS011;10367;52.202;5.996;2023-04-03T05:45:35;16.90;;;5.07;;
20415;SDS011;10367;52.202;5.996;2023-04-03T05:48:04;14.00;;;5.83;;
20415;SDS011;10367;52.202;5.996;2023-04-03T05:50:32;11.30;;;6.03;;
20415;SDS011;10367;52.202;5.996;2023-04-03T05:53:01;15.03;;;5.57;;
20415;SDS011;10367;52.202;5.996;2023-04-03T05:55:31;14.90;;;6.17;;
20415;SDS011;10367;52.202;5.996;2023-04-03T05:58:00;10.70;;;5.57;;
20415;SDS011;10367;52.202;5.996;2023-04-03T06:00:30;19.43;;;7.73;;
20415;SDS011;10367;52.202;5.996;2023-04-03T06:02:59;15.40;;;5.67;;
20415;SDS011;10367;52.202;5.996;2023-04-03T06:05:28;17.10;;;6.50;;
20415;SDS011;10367;52.202;5.996;2023-04-03T06:07:56;21.07;;;7.67;;
20415;SDS011;10367;52.202;5.996;2023-04-03T06:10:25;18.57;;;7.17;;
20415;SDS011;10367;52.202;5.996;2023-04-03T06:12:54;13.27;;;6.57;;
20415;SDS011;10367;52.202;5.996;2023-04-03T06:15:22;15.73;;;6.63;;
20415;SDS011;10367;52.202;5.996;2023-04-03T06:17:53;15.03;;;6.33;;
20415;SDS011;10367;52.202;5.996;2023-04-03T06:20:22;22.10;;;7.70;;
20415;SDS011;10367;52.202;5.996;2023-04-03T06:22:50;15.83;;;6.33;;
20415;SDS011;10367;52.202;5.996;2023-04-03T06:25:19;24.67;;;8.33;;
20415;SDS011;10367;52.202;5.996;2023-04-03T06:27:48;18.57;;;6.97;;
20415;SDS011;10367;52.202;5.996;2023-04-03T06:30:16;27.50;;;9.20;;
20415;SDS011;10367;52.202;5.996;2023-04-03T06:32:45;13.47;;;6.23;;
20415;SDS011;10367;52.202;5.996;2023-04-03T06:35:15;21.77;;;7.17;;
20415;SDS011;10367;52.202;5.996;2023-04-03T06:37:44;17.73;;;7.17;;
20415;SDS011;10367;52.202;5.996;2023-04-03T06:40:14;17.33;;;7.13;;
20415;SDS011;10367;52.202;5.996;2023-04-03T06:42:47;16.97;;;6.43;;
20415;SDS011;10367;52.202;5.996;2023-04-03T06:45:16;21.80;;;8.03;;
20415;SDS011;10367;52.202;5.996;2023-04-03T06:47:46;15.90;;;6.57;;
20415;SDS011;10367;52.202;5.996;2023-04-03T06:50:16;23.20;;;8.23;;
20415;SDS011;10367;52.202;5.996;2023-04-03T06:52:45;9.63;;;5.20;;
20415;SDS011;10367;52.202;5.996;2023-04-03T06:55:13;14.43;;;6.77;;
20415;SDS011;10367;52.202;5.996;2023-04-03T06:57:42;9.60;;;4.73;;
20415;SDS011;10367;52.202;5.996;2023-04-03T07:00:11;18.10;;;7.03;;
20415;SDS011;10367;52.202;5.996;2023-04-03T07:02:41;13.87;;;6.30;;
20415;SDS011;10367;52.202;5.996;2023-04-03T07:05:10;9.67;;;5.13;;
20415;SDS011;10367;52.202;5.996;2023-04-03T07:07:40;8.23;;;4.17;;
20415;SDS011;10367;52.202;5.996;2023-04-03T07:10:09;15.43;;;6.70;;
20415;SDS011;10367;52.202;5.996;2023-04-03T07:12:38;10.53;;;4.80;;
20415;SDS011;10367;52.202;5.996;2023-04-03T07:15:07;17.50;;;6.70;;
20415;SDS011;10367;52.202;5.996;2023-04-03T07:17:36;10.23;;;4.93;;
20415;SDS011;10367;52.202;5.996;2023-04-03T07:20:05;13.00;;;6.20;;
20415;SDS011;10367;52.202;5.996;2023-04-03T07:22:35;6.23;;;4.53;;
20415;SDS011;10367;52.202;5.996;2023-04-03T07:25:05;6.00;;;4.53;;
20415;SDS011;10367;52.202;5.996;2023-04-03T07:27:35;10.60;;;4.67;;
20415;SDS011;10367;52.202;5.996;2023-04-03T07:30:04;12.50;;;6.00;;
20415;SDS011;10367;52.202;5.996;2023-04-03T07:32:34;8.40;;;4.80;;
20415;SDS011;10367;52.202;5.996;2023-04-03T07:35:03;8.30;;;4.83;;
20415;SDS011;10367;52.202;5.996;2023-04-03T07:37:32;9.87;;;5.50;;
20415;SDS011;10367;52.202;5.996;2023-04-03T07:40:01;8.10;;;4.30;;
20415;SDS011;10367;52.202;5.996;2023-04-03T07:42:32;7.90;;;4.60;;
20415;SDS011;10367;52.202;5.996;2023-04-03T07:45:02;6.17;;;4.40;;
20415;SDS011;10367;52.202;5.996;2023-04-03T07:47:32;6.77;;;4.70;;
20415;SDS011;10367;52.202;5.996;2023-04-03T07:50:01;7.30;;;5.47;;
20415;SDS011;10367;52.202;5.996;2023-04-03T07:52:30;6.67;;;4.30;;
20415;SDS011;10367;52.202;5.996;2023-04-03T07:54:59;10.57;;;5.00;;
20415;SDS011;10367;52.202;5.996;2023-04-03T07:57:27;11.87;;;6.20;;
20415;SDS011;10367;52.202;5.996;2023-04-03T07:59:58;8.27;;;5.23;;
20415;SDS011;10367;52.202;5.996;2023-04-03T08:02:26;18.97;;;7.67;;
20415;SDS011;10367;52.202;5.996;2023-04-03T08:04:55;8.30;;;5.80;;
20415;SDS011;10367;52.202;5.996;2023-04-03T08:07:24;15.17;;;7.13;;
20415;SDS011;10367;52.202;5.996;2023-04-03T08:09:54;9.20;;;5.50;;
20415;SDS011;10367;52.202;5.996;2023-04-03T08:12:24;11.90;;;6.53;;
20415;SDS011;10367;52.202;5.996;2023-04-03T08:14:52;8.27;;;5.23;;
20415;SDS011;10367;52.202;5.996;2023-04-03T08:17:22;13.20;;;6.80;;
20415;SDS011;10367;52.202;5.996;2023-04-03T08:19:51;7.13;;;5.27;;
20415;SDS011;10367;52.202;5.996;2023-04-03T08:22:20;12.10;;;6.53;;
20415;SDS011;10367;52.202;5.996;2023-04-03T08:24:49;8.63;;;5.13;;
20415;SDS011;10367;52.202;5.996;2023-04-03T08:27:25;9.07;;;5.93;;
20415;SDS011;10367;52.202;5.996;2023-04-03T08:29:54;8.07;;;5.20;;
20415;SDS011;10367;52.202;5.996;2023-04-03T08:32:25;11.77;;;6.43;;
20415;SDS011;10367;52.202;5.996;2023-04-03T08:34:54;6.93;;;5.30;;
20415;SDS011;10367;52.202;5.996;2023-04-03T08:37:22;15.57;;;7.20;;
20415;SDS011;10367;52.202;5.996;2023-04-03T08:39:51;10.57;;;5.33;;
20415;SDS011;10367;52.202;5.996;2023-04-03T08:42:24;13.20;;;7.60;;
20415;SDS011;10367;52.202;5.996;2023-04-03T08:45:06;7.20;;;5.73;;
20415;SDS011;10367;52.202;5.996;2023-04-03T08:47:42;7.80;;;5.50;;
20415;SDS011;10367;52.202;5.996;2023-04-03T08:50:15;9.23;;;6.20;;
20415;SDS011;10367;52.202;5.996;2023-04-03T08:52:47;8.03;;;5.60;;
20415;SDS011;10367;52.202;5.996;2023-04-03T08:55:22;17.20;;;8.13;;
20415;SDS011;10367;52.202;5.996;2023-04-03T08:57:54;6.97;;;5.90;;
20415;SDS011;10367;52.202;5.996;2023-04-03T09:00:28;13.60;;;7.17;;
20415;SDS011;10367;52.202;5.996;2023-04-03T09:03:02;5.67;;;5.13;;
20415;SDS011;10367;52.202;5.996;2023-04-03T09:05:34;6.17;;;5.30;;
20415;SDS011;10367;52.202;5.996;2023-04-03T09:08:12;18.17;;;8.50;;
20415;SDS011;10367;52.202;5.996;2023-04-03T09:10:49;13.27;;;7.53;;
20415;SDS011;10367;52.202;5.996;2023-04-03T09:13:27;7.93;;;6.00;;
20415;SDS011;10367;52.202;5.996;2023-04-03T09:16:04;7.50;;;5.83;;
20415;SDS011;10367;52.202;5.996;2023-04-03T09:18:50;8.40;;;6.53;;
20415;SDS011;10367;52.202;5.996;2023-04-03T09:21:23;11.83;;;6.73;;
20415;SDS011;10367;52.202;5.996;2023-04-03T09:23:58;7.00;;;6.23;;
20415;SDS011;10367;52.202;5.996;2023-04-03T09:26:31;9.13;;;6.40;;
20415;SDS011;10367;52.202;5.996;2023-04-03T09:29:05;6.40;;;5.77;;
20415;SDS011;10367;52.202;5.996;2023-04-03T09:31:36;7.40;;;5.80;;
20415;SDS011;10367;52.202;5.996;2023-04-03T09:34:10;12.63;;;7.57;;
20415;SDS011;10367;52.202;5.996;2023-04-03T09:36:46;8.20;;;6.67;;
20415;SDS011;10367;52.202;5.996;2023-04-03T09:39:16;17.47;;;9.23;;
20415;SDS011;10367;52.202;5.996;2023-04-03T09:41:57;11.70;;;7.47;;
20415;SDS011;10367;52.202;5.996;2023-04-03T09:47:23;21.13;;;9.83;;
20415;SDS011;10367;52.202;5.996;2023-04-03T09:50:08;14.57;;;7.47;;
20415;SDS011;10367;52.202;5.996;2023-04-03T09:52:46;12.13;;;8.27;;
20415;SDS011;10367;52.202;5.996;2023-04-03T09:55:17;11.73;;;7.93;;
20415;SDS011;10367;52.202;5.996;2023-04-03T09:57:48;9.20;;;7.00;;
20415;SDS011;10367;52.202;5.996;2023-04-03T10:00:20;15.80;;;8.53;;
20415;SDS011;10367;52.202;5.996;2023-04-03T10:02:50;8.63;;;7.13;;
20415;SDS011;10367;52.202;5.996;2023-04-03T10:05:35;16.73;;;9.30;;
20415;SDS011;10367;52.202;5.996;2023-04-03T10:08:09;10.30;;;7.43;;
20415;SDS011;10367;52.202;5.996;2023-04-03T10:10:48;10.23;;;7.47;;
20415;SDS011;10367;52.202;5.996;2023-04-03T10:13:33;15.93;;;9.30;;
20415;SDS011;10367;52.202;5.996;2023-04-03T10:16:17;13.03;;;8.57;;
20415;SDS011;10367;52.202;5.996;2023-04-03T10:18:49;13.93;;;8.73;;
20415;SDS011;10367;52.202;5.996;2023-04-03T10:21:40;12.43;;;8.43;;
20415;SDS011;10367;52.202;5.996;2023-04-03T10:24:14;12.17;;;8.33;;
20415;SDS011;10367;52.202;5.996;2023-04-03T10:26:51;9.10;;;7.47;;
20415;SDS011;10367;52.202;5.996;2023-04-03T10:29:30;17.77;;;9.80;;
20415;SDS011;10367;52.202;5.996;2023-04-03T10:32:11;7.77;;;6.93;;
20415;SDS011;10367;52.202;5.996;2023-04-03T10:34:53;11.77;;;8.73;;
20415;SDS011;10367;52.202;5.996;2023-04-03T10:37:34;14.30;;;6.83;;
20415;SDS011;10367;52.202;5.996;2023-04-03T10:40:20;8.70;;;7.80;;
20415;SDS011;10367;52.202;5.996;2023-04-03T10:43:01;8.33;;;7.47;;
20415;SDS011;10367;52.202;5.996;2023-04-03T10:45:44;13.23;;;8.77;;
20415;SDS011;10367;52.202;5.996;2023-04-03T10:48:23;11.27;;;7.93;;
20415;SDS011;10367;52.202;5.996;2023-04-03T10:51:05;8.90;;;7.90;;
20415;SDS011;10367;52.202;5.996;2023-04-03T10:53:44;12.27;;;8.83;;
20415;SDS011;10367;52.202;5.996;2023-04-03T10:56:19;15.00;;;9.63;;
20415;SDS011;10367;52.202;5.996;2023-04-03T10:58:58;9.17;;;8.20;;
20415;SDS011;10367;52.202;5.996;2023-04-03T11:01:33;14.07;;;10.83;;
20415;SDS011;10367;52.202;5.996;2023-04-03T11:04:04;9.23;;;8.53;;
20415;SDS011;10367;52.202;5.996;2023-04-03T11:06:35;10.03;;;8.93;;
20415;SDS011;10367;52.202;5.996;2023-04-03T11:09:11;11.10;;;9.10;;
20415;SDS011;10367;52.202;5.996;2023-04-03T11:11:47;9.77;;;8.77;;
20415;SDS011;10367;52.202;5.996;2023-04-03T11:14:21;16.17;;;10.67;;
20415;SDS011;10367;52.202;5.996;2023-04-03T11:17:01;10.37;;;9.13;;
20415;SDS011;10367;52.202;5.996;2023-04-03T11:19:38;15.43;;;9.87;;
20415;SDS011;10367;52.202;5.996;2023-04-03T11:22:14;22.97;;;11.80;;
20415;SDS011;10367;52.202;5.996;2023-04-03T11:24:54;10.77;;;9.03;;
20415;SDS011;10367;52.202;5.996;2023-04-03T11:27:27;17.87;;;10.83;;
20415;SDS011;10367;52.202;5.996;2023-04-03T11:30:03;10.53;;;8.60;;
20415;SDS011;10367;52.202;5.996;2023-04-03T11:32:41;20.23;;;11.30;;
20415;SDS011;10367;52.202;5.996;2023-04-03T11:35:22;16.70;;;10.37;;
20415;SDS011;10367;52.202;5.996;2023-04-03T11:37:53;8.90;;;8.00;;
20415;SDS011;10367;52.202;5.996;2023-04-03T11:40:24;16.73;;;10.57;;
20415;SDS011;10367;52.202;5.996;2023-04-03T11:42:55;13.47;;;10.13;;
20415;SDS011;10367;52.202;5.996;2023-04-03T11:45:34;15.87;;;10.40;;
20415;SDS011;10367;52.202;5.996;2023-04-03T11:48:07;12.37;;;9.30;;
20415;SDS011;10367;52.202;5.996;2023-04-03T12:03:31;13.13;;;10.27;;
20415;SDS011;10367;52.202;5.996;2023-04-03T12:09:04;9.57;;;8.63;;
20415;SDS011;10367;52.202;5.996;2023-04-03T12:12:22;9.50;;;8.63;;
20415;SDS011;10367;52.202;5.996;2023-04-03T12:14:57;10.57;;;9.60;;
20415;SDS011;10367;52.202;5.996;2023-04-03T12:17:47;9.97;;;9.17;;
20415;SDS011;10367;52.202;5.996;2023-04-03T12:23:26;14.87;;;10.50;;
20415;SDS011;10367;52.202;5.996;2023-04-03T12:26:04;12.20;;;10.50;;
20415;SDS011;10367;52.202;5.996;2023-04-03T12:28:48;10.77;;;9.63;;
20415;SDS011;10367;52.202;5.996;2023-04-03T12:31:22;10.70;;;9.67;;
20415;SDS011;10367;52.202;5.996;2023-04-03T12:36:49;10.40;;;8.90;;
20415;SDS011;10367;52.202;5.996;2023-04-03T12:39:33;10.50;;;9.10;;
20415;SDS011;10367;52.202;5.996;2023-04-03T12:42:18;10.70;;;9.50;;
20415;SDS011;10367;52.202;5.996;2023-04-03T12:45:01;10.33;;;9.30;;
20415;SDS011;10367;52.202;5.996;2023-04-03T12:47:39;12.13;;;10.13;;
20415;SDS011;10367;52.202;5.996;2023-04-03T12:50:18;11.53;;;9.60;;
20415;SDS011;10367;52.202;5.996;2023-04-03T12:52:52;9.70;;;8.70;;
20415;SDS011;10367;52.202;5.996;2023-04-03T12:55:25;10.07;;;9.20;;
20415;SDS011;10367;52.202;5.996;2023-04-03T12:57:54;9.77;;;8.97;;
20415;SDS011;10367;52.202;5.996;2023-04-03T13:00:31;11.53;;;10.07;;
20415;SDS011;10367;52.202;5.996;2023-04-03T13:03:03;11.40;;;10.00;;
20415;SDS011;10367;52.202;5.996;2023-04-03T13:05:34;17.57;;;11.27;;
20415;SDS011;10367;52.202;5.996;2023-04-03T13:08:05;10.73;;;9.73;;
20415;SDS011;10367;52.202;5.996;2023-04-03T13:10:43;12.97;;;10.13;;
20415;SDS011;10367;52.202;5.996;2023-04-03T13:13:17;15.80;;;9.27;;
20415;SDS011;10367;52.202;5.996;2023-04-03T13:15:47;12.93;;;8.90;;
20415;SDS011;10367;52.202;5.996;2023-04-03T13:18:25;13.00;;;9.70;;
20415;SDS011;10367;52.202;5.996;2023-04-03T13:20:59;10.23;;;9.23;;
20415;SDS011;10367;52.202;5.996;2023-04-03T13:23:31;16.63;;;11.83;;
20415;SDS011;10367;52.202;5.996;2023-04-03T13:26:03;10.37;;;9.63;;
20415;SDS011;10367;52.202;5.996;2023-04-03T13:28:33;17.37;;;11.67;;
20415;SDS011;10367;52.202;5.996;2023-04-03T13:31:08;10.53;;;9.43;;
20415;SDS011;10367;52.202;5.996;2023-04-03T13:33:53;17.63;;;11.53;;
20415;SDS011;10367;52.202;5.996;2023-04-03T13:36:26;13.40;;;11.13;;
20415;SDS011;10367;52.202;5.996;2023-04-03T13:38:58;11.67;;;10.33;;
20415;SDS011;10367;52.202;5.996;2023-04-03T13:41:29;14.03;;;11.00;;
20415;SDS011;10367;52.202;5.996;2023-04-03T13:44:14;10.37;;;9.40;;
20415;SDS011;10367;52.202;5.996;2023-04-03T13:46:44;24.10;;;12.73;;
20415;SDS011;10367;52.202;5.996;2023-04-03T13:49:21;11.60;;;10.50;;
20415;SDS011;10367;52.202;5.996;2023-04-03T13:52:03;9.93;;;9.13;;
20415;SDS011;10367;52.202;5.996;2023-04-03T13:54:57;13.57;;;10.30;;
20415;SDS011;10367;52.202;5.996;2023-04-03T13:57:27;15.40;;;11.47;;
20415;SDS011;10367;52.202;5.996;2023-04-03T13:59:57;12.37;;;10.30;;
20415;SDS011;10367;52.202;5.996;2023-04-03T14:02:29;12.67;;;10.40;;
20415;SDS011;10367;52.202;5.996;2023-04-03T14:05:01;9.53;;;8.73;;
20415;SDS011;10367;52.202;5.996;2023-04-03T14:07:32;14.03;;;11.43;;
20415;SDS011;10367;52.202;5.996;2023-04-03T14:10:01;10.70;;;9.80;;
20415;SDS011;10367;52.202;5.996;2023-04-03T14:12:31;15.30;;;11.13;;
20415;SDS011;10367;52.202;5.996;2023-04-03T14:15:03;11.20;;;9.50;;
20415;SDS011;10367;52.202;5.996;2023-04-03T14:17:43;13.03;;;10.93;;
20415;SDS011;10367;52.202;5.996;2023-04-03T14:20:15;11.70;;;10.70;;
20415;SDS011;10367;52.202;5.996;2023-04-03T14:22:46;12.37;;;11.27;;
20415;SDS011;10367;52.202;5.996;2023-04-03T14:25:15;12.13;;;10.83;;
20415;SDS011;10367;52.202;5.996;2023-04-03T14:27:46;13.47;;;10.57;;
20415;SDS011;10367;52.202;5.996;2023-04-03T14:30:17;14.17;;;11.80;;
20415;SDS011;10367;52.202;5.996;2023-04-03T14:32:48;12.33;;;11.00;;
20415;SDS011;10367;52.202;5.996;2023-04-03T14:35:19;13.43;;;10.20;;
20415;SDS011;10367;52.202;5.996;2023-04-03T14:37:50;16.03;;;11.73;;
20415;SDS011;10367;52.202;5.996;2023-04-03T14:40:20;10.83;;;9.90;;
20415;SDS011;10367;52.202;5.996;2023-04-03T14:42:51;12.00;;;10.43;;
20415;SDS011;10367;52.202;5.996;2023-04-03T14:45:23;10.47;;;9.57;;
20415;SDS011;10367;52.202;5.996;2023-04-03T14:47:54;14.77;;;10.57;;
20415;SDS011;10367;52.202;5.996;2023-04-03T14:50:26;10.83;;;9.60;;
20415;SDS011;10367;52.202;5.996;2023-04-03T14:52:55;11.73;;;10.20;;
20415;SDS011;10367;52.202;5.996;2023-04-03T14:55:26;12.10;;;9.97;;
20415;SDS011;10367;52.202;5.996;2023-04-03T14:57:55;12.00;;;10.63;;
20415;SDS011;10367;52.202;5.996;2023-04-03T15:00:23;12.33;;;9.83;;
20415;SDS011;10367;52.202;5.996;2023-04-03T15:02:52;13.87;;;10.93;;
20415;SDS011;10367;52.202;5.996;2023-04-03T15:05:21;14.50;;;10.53;;
20415;SDS011;10367;52.202;5.996;2023-04-03T15:07:52;10.83;;;9.77;;
20415;SDS011;10367;52.202;5.996;2023-04-03T15:10:24;17.13;;;11.43;;
20415;SDS011;10367;52.202;5.996;2023-04-03T15:12:54;14.80;;;10.07;;
20415;SDS011;10367;52.202;5.996;2023-04-03T15:15:23;16.87;;;11.47;;
20415;SDS011;10367;52.202;5.996;2023-04-03T15:17:56;12.97;;;10.70;;
20415;SDS011;10367;52.202;5.996;2023-04-03T15:20:25;16.33;;;10.80;;
20415;SDS011;10367;52.202;5.996;2023-04-03T15:22:59;13.47;;;10.50;;
20415;SDS011;10367;52.202;5.996;2023-04-03T15:25:28;21.10;;;11.90;;
20415;SDS011;10367;52.202;5.996;2023-04-03T15:27:57;10.47;;;9.37;;
20415;SDS011;10367;52.202;5.996;2023-04-03T15:30:27;15.53;;;10.93;;
20415;SDS011;10367;52.202;5.996;2023-04-03T15:32:56;10.17;;;9.17;;
20415;SDS011;10367;52.202;5.996;2023-04-03T15:35:25;21.40;;;12.10;;